createdAt,value
2022-12-23T00:02:47.827Z,3.00
2022-12-23T00:05:49.961Z,2.65
2022-12-23T00:08:58.636Z,2.90
2022-12-23T00:12:19.104Z,3.28
2022-12-23T00:15:21.260Z,3.50
2022-12-23T00:18:23.030Z,3.55
2022-12-23T00:21:24.844Z,3.80
2022-12-23T00:24:26.947Z,4.65
2022-12-23T00:27:32.869Z,4.38
2022-12-23T00:30:44.777Z,4.10
2022-12-23T00:33:48.330Z,4.53
2022-12-23T00:36:50.190Z,5.63
2022-12-23T00:40:10.749Z,4.65
2022-12-23T00:43:12.651Z,5.13
2022-12-23T00:46:14.625Z,5.13
2022-12-23T00:49:38.120Z,4.68
2022-12-23T00:52:40.330Z,4.82
2022-12-23T00:55:42.180Z,4.38
2022-12-23T00:58:43.937Z,4.55
2022-12-23T01:02:10.445Z,4.82
2022-12-23T01:05:41.597Z,4.50
2022-12-23T01:08:43.996Z,4.00
2022-12-23T01:11:49.077Z,4.32
2022-12-23T01:14:51.126Z,4.65
2022-12-23T01:18:02.524Z,6.15
2022-12-23T01:21:11.747Z,6.10
2022-12-23T01:24:13.562Z,5.30
2022-12-23T01:27:15.451Z,5.40
2022-12-23T01:30:17.441Z,4.95
2022-12-23T01:33:19.592Z,4.57
2022-12-23T01:36:22.787Z,4.60
2022-12-23T01:39:24.513Z,4.57
2022-12-23T01:42:45.336Z,4.57
2022-12-23T01:45:47.565Z,3.90
2022-12-23T01:48:52.528Z,3.67
2022-12-23T01:51:54.343Z,3.63
2022-12-23T01:54:57.185Z,3.67
2022-12-23T01:58:12.000Z,3.50
2022-12-23T02:01:33.272Z,3.00
2022-12-23T02:04:35.324Z,2.92
2022-12-23T02:07:56.065Z,2.88
2022-12-23T02:11:09.175Z,3.08
2022-12-23T02:14:57.414Z,2.78
2022-12-23T02:18:18.008Z,3.45
2022-12-23T02:21:48.352Z,2.88
2022-12-23T02:25:19.466Z,2.30
2022-12-23T02:28:39.888Z,2.28
2022-12-23T02:32:28.791Z,3.00
2022-12-23T02:35:40.823Z,2.30
2022-12-23T02:38:51.697Z,2.42
2022-12-23T02:42:00.004Z,2.60
2022-12-23T02:45:19.055Z,3.00
2022-12-23T02:48:27.997Z,2.83
2022-12-23T02:51:36.090Z,3.42
2022-12-23T02:54:45.783Z,2.97
2022-12-23T02:57:51.070Z,3.47
2022-12-23T03:04:10.262Z,3.53
2022-12-23T03:07:19.000Z,3.60
2022-12-23T03:10:34.572Z,4.53
2022-12-23T03:14:04.319Z,4.57
2022-12-23T03:17:32.133Z,4.70
2022-12-23T03:20:52.670Z,4.82
2022-12-23T03:24:26.648Z,4.07
2022-12-23T03:27:36.087Z,3.75
2022-12-23T03:30:44.973Z,3.60
2022-12-23T03:33:51.017Z,3.38
2022-12-23T03:36:57.283Z,3.15
2022-12-23T03:40:05.183Z,3.33
2022-12-23T03:43:20.179Z,3.05
2022-12-23T03:46:52.691Z,3.50
2022-12-23T03:50:00.956Z,3.10
2022-12-23T03:53:09.549Z,3.10
2022-12-23T03:56:18.533Z,3.05
2022-12-23T03:59:22.702Z,2.95
2022-12-23T04:02:39.620Z,2.95
2022-12-23T04:05:45.700Z,2.95
2022-12-23T04:08:49.821Z,2.90
2022-12-23T04:11:52.426Z,2.53
2022-12-23T04:14:57.099Z,2.47
2022-12-23T04:17:59.501Z,2.80
2022-12-23T04:21:01.356Z,3.05
2022-12-23T04:24:03.153Z,2.38
2022-12-23T04:27:05.655Z,2.45
2022-12-23T04:30:09.951Z,2.53
2022-12-23T04:33:12.952Z,2.95
2022-12-23T04:36:14.728Z,2.63
2022-12-23T04:39:16.548Z,2.60
2022-12-23T04:42:18.694Z,2.40
2022-12-23T04:45:20.644Z,2.63
2022-12-23T04:48:22.468Z,2.50
2022-12-23T04:51:24.347Z,2.30
2022-12-23T04:54:26.123Z,2.30
2022-12-23T04:57:28.173Z,2.90
2022-12-23T05:00:35.478Z,2.85
2022-12-23T05:03:41.227Z,2.97
2022-12-23T05:06:43.244Z,2.50
2022-12-23T05:09:45.073Z,2.58
2022-12-23T05:12:46.903Z,3.20
2022-12-23T05:15:53.937Z,2.60
2022-12-23T05:18:55.961Z,2.75
2022-12-23T05:21:57.872Z,3.20
2022-12-23T05:24:59.769Z,3.03
2022-12-23T05:28:02.222Z,2.80
2022-12-23T05:31:06.368Z,3.00
2022-12-23T05:34:08.249Z,2.80
2022-12-23T05:37:10.439Z,2.95
2022-12-23T05:40:13.489Z,3.13
2022-12-23T05:43:18.889Z,2.97
2022-12-23T05:46:26.264Z,2.88
2022-12-23T05:49:31.608Z,2.70
2022-12-23T05:52:33.543Z,3.47
2022-12-23T05:55:36.156Z,2.70
2022-12-23T05:58:37.883Z,2.87
2022-12-23T06:01:39.873Z,2.88
2022-12-23T06:04:41.836Z,3.95
2022-12-23T06:07:44.091Z,3.53
2022-12-23T06:10:45.951Z,3.85
2022-12-23T06:13:47.943Z,3.67
2022-12-23T06:16:51.783Z,2.75
2022-12-23T06:19:53.766Z,2.92
2022-12-23T06:22:55.780Z,2.92
2022-12-23T06:26:01.815Z,3.05
2022-12-23T06:29:04.420Z,2.63
2022-12-23T06:32:06.767Z,3.53
2022-12-23T06:35:09.366Z,3.50
2022-12-23T06:38:12.424Z,3.60
2022-12-23T06:41:14.620Z,2.95
2022-12-23T06:44:16.810Z,4.15
2022-12-23T06:47:18.540Z,3.70
2022-12-23T06:50:20.727Z,3.97
2022-12-23T06:53:22.726Z,3.75
2022-12-23T06:56:24.525Z,4.10
2022-12-23T06:59:26.287Z,4.60
2022-12-23T07:02:28.325Z,4.15
2022-12-23T07:05:36.688Z,4.05
2022-12-23T07:08:39.950Z,4.20
2022-12-23T07:11:41.769Z,4.10
2022-12-23T07:14:43.547Z,4.18
2022-12-23T07:17:45.312Z,2.38
2022-12-23T07:20:47.591Z,2.45
2022-12-23T07:23:49.634Z,3.20
2022-12-23T07:26:51.906Z,3.75
2022-12-23T07:29:54.042Z,4.22
2022-12-23T07:32:55.894Z,4.30
2022-12-23T07:35:59.235Z,4.90
2022-12-23T07:42:33.939Z,4.85
2022-12-23T07:45:26.107Z,5.00
2022-12-23T07:48:28.004Z,4.95
2022-12-23T07:51:29.944Z,4.63
2022-12-23T07:54:31.885Z,4.15
2022-12-23T07:57:38.346Z,4.72
2022-12-23T08:00:40.624Z,4.53
2022-12-23T08:03:42.660Z,4.13
2022-12-23T08:06:44.602Z,4.50
2022-12-23T08:09:46.687Z,3.55
2022-12-23T08:12:48.780Z,3.78
2022-12-23T08:15:55.847Z,3.67
2022-12-23T08:18:57.975Z,3.78
2022-12-23T08:22:03.062Z,3.83
2022-12-23T08:25:05.264Z,3.97
2022-12-23T08:28:07.216Z,3.63
2022-12-23T08:31:16.769Z,4.00
2022-12-23T08:34:19.542Z,3.75
2022-12-23T08:37:21.337Z,3.20
2022-12-23T08:40:25.829Z,3.40
2022-12-23T08:43:33.626Z,3.22
2022-12-23T08:46:38.462Z,3.17
2022-12-23T08:49:40.408Z,2.92
2022-12-23T08:52:42.676Z,2.47
2022-12-23T08:55:47.191Z,2.13
2022-12-23T08:58:51.287Z,2.50
2022-12-23T09:01:53.137Z,2.38
2022-12-23T09:04:54.974Z,2.83
2022-12-23T09:07:57.640Z,3.55
2022-12-23T09:10:59.728Z,2.97
2022-12-23T09:14:07.069Z,3.42
2022-12-23T09:17:09.129Z,3.60
2022-12-23T09:20:11.255Z,3.30
2022-12-23T09:23:13.333Z,3.55
2022-12-23T09:26:22.456Z,3.85
2022-12-23T09:29:24.249Z,5.90
2022-12-23T09:32:26.224Z,4.43
2022-12-23T09:35:28.071Z,2.88
2022-12-23T09:38:30.052Z,2.35
2022-12-23T09:42:16.257Z,2.10
2022-12-23T09:45:40.887Z,2.53
2022-12-23T09:49:00.936Z,2.08
2022-12-23T09:52:06.712Z,2.60
2022-12-23T09:55:11.896Z,2.15
2022-12-23T09:58:38.823Z,1.60
2022-12-23T10:01:55.210Z,2.10
2022-12-23T10:05:23.991Z,2.00
2022-12-23T10:08:40.396Z,2.00
2022-12-23T10:11:44.986Z,2.42
2022-12-23T10:14:48.307Z,2.13
2022-12-23T10:17:55.593Z,2.33
2022-12-23T10:21:05.997Z,2.90
2022-12-23T10:24:22.970Z,2.67
2022-12-23T10:27:38.984Z,2.95
2022-12-23T10:31:05.909Z,2.35
2022-12-23T10:34:17.480Z,2.33
2022-12-23T10:37:45.259Z,2.55
2022-12-23T10:41:14.919Z,2.35
2022-12-23T10:44:43.193Z,2.03
2022-12-23T10:48:14.015Z,2.47
2022-12-23T10:51:23.131Z,2.55
2022-12-23T10:54:34.886Z,2.40
2022-12-23T10:57:36.709Z,2.25
2022-12-23T11:00:43.382Z,2.47
2022-12-23T11:04:07.829Z,3.13
2022-12-23T11:07:46.631Z,3.28
2022-12-23T11:10:49.987Z,3.15
2022-12-23T11:13:51.880Z,5.88
2022-12-23T11:16:54.172Z,3.65
2022-12-23T11:20:10.977Z,3.17
2022-12-23T11:23:35.971Z,29.70
2022-12-23T11:26:38.779Z,15.98
2022-12-23T11:29:54.009Z,16.48
2022-12-23T11:32:56.400Z,5.85
2022-12-23T11:36:09.056Z,3.60
2022-12-23T11:39:13.915Z,3.25
2022-12-23T11:42:20.435Z,2.55
2022-12-23T11:45:25.699Z,2.60
2022-12-23T11:48:29.807Z,3.78
2022-12-23T11:51:31.680Z,7.13
2022-12-23T11:54:34.647Z,2.90
2022-12-23T11:57:44.266Z,2.83
2022-12-23T12:00:56.378Z,3.10
2022-12-23T12:04:06.306Z,2.28
2022-12-23T12:07:13.534Z,1.77
2022-12-23T12:10:25.489Z,2.42
2022-12-23T12:13:37.054Z,1.95
2022-12-23T12:17:03.950Z,2.20
2022-12-23T12:20:56.187Z,2.00
2022-12-23T12:24:22.761Z,5.22
2022-12-23T12:27:35.955Z,1.83
2022-12-23T12:30:47.314Z,1.40
2022-12-23T12:33:56.851Z,1.98
2022-12-23T12:37:08.148Z,2.10
2022-12-23T12:40:40.242Z,1.90
2022-12-23T12:44:11.991Z,1.83
2022-12-23T12:47:52.268Z,1.48
2022-12-23T12:51:03.196Z,1.30
2022-12-23T12:54:35.268Z,1.55
2022-12-23T12:57:37.648Z,1.33
2022-12-23T13:01:10.427Z,1.50
2022-12-23T13:04:25.243Z,1.35
2022-12-23T13:07:56.294Z,0.90
2022-12-23T13:11:11.093Z,0.90
2022-12-23T13:14:25.202Z,0.85
2022-12-23T13:18:09.533Z,1.25
2022-12-23T13:24:56.141Z,1.33
2022-12-23T13:28:03.125Z,1.08
2022-12-23T13:31:14.881Z,1.00
2022-12-23T13:34:35.766Z,1.40
2022-12-23T13:38:09.762Z,1.55
2022-12-23T13:41:26.136Z,1.40
2022-12-23T13:44:30.466Z,1.20
2022-12-23T13:47:50.376Z,1.60
2022-12-23T13:51:20.530Z,1.20
2022-12-23T13:54:40.315Z,1.27
2022-12-23T13:58:03.862Z,1.30
2022-12-23T14:01:08.947Z,1.25
2022-12-23T14:04:37.739Z,1.80
2022-12-23T14:07:45.284Z,1.40
2022-12-23T14:10:58.631Z,1.45
2022-12-23T14:14:06.200Z,1.40
2022-12-23T14:17:27.427Z,1.77
2022-12-23T14:20:44.504Z,1.48
2022-12-23T14:24:04.906Z,1.50
2022-12-23T14:27:15.236Z,1.40
2022-12-23T14:30:25.332Z,1.50
2022-12-23T14:33:36.093Z,1.88
2022-12-23T14:36:39.006Z,1.20
2022-12-23T14:39:41.307Z,1.33
2022-12-23T14:42:44.512Z,1.25
2022-12-23T14:45:46.561Z,1.10
2022-12-23T14:48:48.523Z,1.08
2022-12-23T14:51:51.072Z,1.05
2022-12-23T14:55:27.925Z,0.90
2022-12-23T14:58:23.056Z,1.00
2022-12-23T15:01:37.183Z,0.70
2022-12-23T15:04:46.458Z,0.70
2022-12-23T15:07:48.690Z,0.90
2022-12-23T15:10:51.083Z,1.30
2022-12-23T15:13:55.191Z,0.85
2022-12-23T15:17:16.137Z,0.90
2022-12-23T15:20:24.394Z,0.95
2022-12-23T15:23:26.413Z,1.08
2022-12-23T15:26:32.430Z,0.98
2022-12-23T15:29:34.554Z,2.00
2022-12-23T15:32:38.810Z,2.05
2022-12-23T15:35:40.817Z,1.58
2022-12-23T15:38:43.399Z,2.10
2022-12-23T15:41:47.121Z,2.47
2022-12-23T15:44:50.339Z,1.60
2022-12-23T15:47:52.062Z,1.52
2022-12-23T15:51:08.270Z,1.98
2022-12-23T15:54:21.775Z,1.70
2022-12-23T15:57:27.437Z,2.20
2022-12-23T16:00:39.859Z,1.92
2022-12-23T16:03:46.394Z,2.35
2022-12-23T16:06:59.211Z,2.45
2022-12-23T16:10:13.311Z,2.00
2022-12-23T16:13:20.115Z,2.38
2022-12-23T16:16:42.863Z,2.53
2022-12-23T16:20:19.920Z,3.22
2022-12-23T16:23:22.913Z,2.58
2022-12-23T16:26:24.943Z,2.60
2022-12-23T16:29:26.964Z,3.33
2022-12-23T16:32:30.638Z,2.88
2022-12-23T16:35:41.931Z,2.83
2022-12-23T16:38:48.566Z,3.05
2022-12-23T16:41:56.616Z,2.63
2022-12-23T16:44:58.673Z,2.97
2022-12-23T16:48:01.681Z,3.05
2022-12-23T16:51:11.210Z,3.38
2022-12-23T16:54:18.958Z,3.50
2022-12-23T16:57:20.970Z,3.03
2022-12-23T17:00:22.942Z,3.45
2022-12-23T17:03:24.767Z,3.40
2022-12-23T17:06:27.213Z,3.58
2022-12-23T17:09:29.345Z,3.30
2022-12-23T17:12:31.218Z,3.40
2022-12-23T17:15:33.450Z,4.07
2022-12-23T17:18:44.608Z,4.15
2022-12-23T17:21:47.657Z,4.22
2022-12-23T17:24:49.625Z,4.63
2022-12-23T17:27:53.559Z,4.15
2022-12-23T17:30:56.562Z,3.63
2022-12-23T17:33:58.479Z,3.90
2022-12-23T17:37:01.963Z,4.43
2022-12-23T17:40:04.155Z,3.63
2022-12-23T17:43:06.337Z,4.03
2022-12-23T17:46:14.374Z,3.20
2022-12-23T17:49:16.312Z,4.55
2022-12-23T17:52:20.859Z,3.95
2022-12-23T17:55:24.978Z,3.30
2022-12-23T17:58:26.717Z,3.67
2022-12-23T18:01:31.612Z,3.95
2022-12-23T18:04:34.408Z,3.72
2022-12-23T18:07:36.219Z,3.95
2022-12-23T18:10:40.333Z,3.33
2022-12-23T18:13:42.227Z,3.80
2022-12-23T18:16:44.095Z,3.75
2022-12-23T18:19:48.211Z,3.28
2022-12-23T18:22:52.498Z,4.10
2022-12-23T18:25:55.950Z,3.47
2022-12-23T18:32:00.685Z,2.80
2022-12-23T18:35:02.779Z,4.57
2022-12-23T18:38:10.454Z,4.05
2022-12-23T18:41:12.874Z,4.55
2022-12-23T18:44:21.511Z,3.47
2022-12-23T18:47:23.380Z,4.05
2022-12-23T18:50:26.185Z,4.05
2022-12-23T18:53:27.928Z,3.60
2022-12-23T18:56:29.942Z,4.78
2022-12-23T18:59:33.068Z,4.68
2022-12-23T19:02:34.890Z,5.43
2022-12-23T19:05:38.190Z,4.28
2022-12-23T19:08:42.194Z,3.85
2022-12-23T19:11:46.686Z,4.65
2022-12-23T19:14:48.612Z,4.65
2022-12-23T19:17:50.752Z,4.47
2022-12-23T19:20:52.517Z,4.10
2022-12-23T19:23:54.476Z,4.00
2022-12-23T19:26:56.500Z,4.75
2022-12-23T19:29:59.071Z,3.80
2022-12-23T19:33:00.888Z,3.93
2022-12-23T19:36:07.465Z,3.97
2022-12-23T19:39:17.695Z,5.00
2022-12-23T19:42:19.933Z,4.18
2022-12-23T19:45:21.725Z,4.00
2022-12-23T19:48:23.501Z,4.63
2022-12-23T19:51:25.497Z,4.25
2022-12-23T19:54:27.536Z,3.00
2022-12-23T19:57:29.588Z,3.35
2022-12-23T20:00:31.312Z,3.70
2022-12-23T20:03:33.494Z,3.33
2022-12-23T20:06:38.293Z,3.38
2022-12-23T20:09:41.319Z,3.35
2022-12-23T20:12:43.598Z,3.28
2022-12-23T20:15:45.435Z,3.55
2022-12-23T20:18:47.291Z,4.50
2022-12-23T20:21:50.093Z,3.50
2022-12-23T20:24:51.970Z,3.75
2022-12-23T20:27:54.034Z,3.65
2022-12-23T20:31:07.792Z,4.07
2022-12-23T20:34:16.828Z,4.30
2022-12-23T20:37:18.600Z,4.38
2022-12-23T20:40:20.784Z,3.85
2022-12-23T20:43:24.331Z,4.03
2022-12-23T20:46:26.319Z,3.72
2022-12-23T20:49:28.284Z,4.90
2022-12-23T20:52:30.285Z,4.28
2022-12-23T20:55:32.941Z,4.10
2022-12-23T20:58:55.742Z,3.63
2022-12-23T21:01:59.232Z,3.88
2022-12-23T21:05:01.398Z,3.65
2022-12-23T21:08:04.519Z,4.25
2022-12-23T21:11:07.380Z,4.22
2022-12-23T21:14:09.685Z,3.40
2022-12-23T21:17:11.695Z,3.28
2022-12-23T21:20:16.311Z,4.07
2022-12-23T21:23:18.389Z,3.85
2022-12-23T21:26:29.020Z,3.60
2022-12-23T21:29:30.829Z,4.15
2022-12-23T21:32:32.728Z,4.90
2022-12-23T21:35:35.576Z,4.00
2022-12-23T21:38:39.837Z,4.35
2022-12-23T21:41:42.000Z,3.80
2022-12-23T21:44:43.776Z,3.95
2022-12-23T21:47:45.681Z,4.63
2022-12-23T21:50:47.489Z,4.30
2022-12-23T21:53:51.926Z,3.95
2022-12-23T21:56:53.849Z,4.10
2022-12-23T21:59:55.836Z,4.00
2022-12-23T22:03:01.036Z,4.47
2022-12-23T22:06:12.278Z,5.38
2022-12-23T22:09:18.906Z,4.20
2022-12-23T22:12:20.829Z,4.25
2022-12-23T22:15:25.595Z,4.03
2022-12-23T22:18:27.431Z,4.45
2022-12-23T22:21:35.021Z,4.20
2022-12-23T22:24:36.830Z,4.45
2022-12-23T22:27:38.638Z,4.40
2022-12-23T22:30:40.696Z,4.35
2022-12-23T22:33:42.869Z,4.15
2022-12-23T22:36:45.165Z,3.67
2022-12-23T22:39:49.501Z,4.65
2022-12-23T22:42:51.343Z,4.88
2022-12-23T22:45:57.804Z,4.18
2022-12-23T22:48:59.861Z,4.28
2022-12-23T22:52:01.606Z,5.22
2022-12-23T22:55:04.411Z,4.95
2022-12-23T22:58:06.655Z,4.70
2022-12-23T23:01:38.722Z,4.45
2022-12-23T23:04:40.561Z,4.45
2022-12-23T23:07:42.405Z,5.35
2022-12-23T23:10:45.393Z,5.07
2022-12-23T23:13:47.408Z,4.50
2022-12-23T23:16:49.326Z,5.50
2022-12-23T23:19:52.469Z,4.60
2022-12-23T23:22:54.480Z,4.03
2022-12-23T23:25:56.358Z,4.10
2022-12-23T23:28:58.163Z,4.05
2022-12-23T23:32:00.015Z,4.18
2022-12-23T23:35:08.777Z,4.82
2022-12-23T23:38:12.592Z,4.53
2022-12-23T23:41:18.939Z,4.43
2022-12-23T23:44:24.600Z,5.20
2022-12-23T23:47:26.335Z,4.25
2022-12-23T23:50:38.640Z,4.80
2022-12-23T23:53:40.919Z,3.80
2022-12-23T23:56:42.859Z,4.63
2022-12-23T23:59:44.658Z,5.05
